createdAt,value
2023-01-23T00:00:15.400Z,39.30
2023-01-23T00:02:43.345Z,36.58
2023-01-23T00:05:11.998Z,40.30
2023-01-23T00:07:39.809Z,35.40
2023-01-23T00:10:10.868Z,39.28
2023-01-23T00:12:41.701Z,42.45
2023-01-23T00:15:10.504Z,34.88
2023-01-23T00:17:38.445Z,30.85
2023-01-23T00:20:07.261Z,26.88
2023-01-23T00:22:35.095Z,28.23
2023-01-23T00:25:02.938Z,36.22
2023-01-23T00:27:32.341Z,31.98
2023-01-23T00:30:00.180Z,25.95
2023-01-23T00:32:28.957Z,27.15
2023-01-23T00:34:56.772Z,27.98
2023-01-23T00:37:24.554Z,28.75
2023-01-23T00:39:52.338Z,25.27
2023-01-23T00:42:20.172Z,28.08
2023-01-23T00:44:49.290Z,29.25
2023-01-23T00:47:17.108Z,27.30
2023-01-23T00:49:44.882Z,31.25
2023-01-23T00:52:12.688Z,25.05
2023-01-23T00:54:40.444Z,29.00
2023-01-23T00:57:08.252Z,27.65
2023-01-23T00:59:36.069Z,27.40
2023-01-23T01:02:05.240Z,26.90
2023-01-23T01:04:33.055Z,26.25
2023-01-23T01:07:00.872Z,25.50
2023-01-23T01:09:28.725Z,27.17
2023-01-23T01:11:56.652Z,26.15
2023-01-23T01:14:24.473Z,27.63
2023-01-23T01:16:52.301Z,25.55
2023-01-23T01:19:21.453Z,24.75
2023-01-23T01:21:49.248Z,22.52
2023-01-23T01:24:17.068Z,24.85
2023-01-23T01:26:44.863Z,25.70
2023-01-23T01:29:12.663Z,27.67
2023-01-23T01:31:40.485Z,28.67
2023-01-23T01:34:08.300Z,30.10
2023-01-23T01:36:37.528Z,29.40
2023-01-23T01:39:05.378Z,29.08
2023-01-23T01:41:33.213Z,26.50
2023-01-23T01:44:00.993Z,30.27
2023-01-23T01:46:29.815Z,29.38
2023-01-23T01:49:07.457Z,34.50
2023-01-23T01:51:41.203Z,34.75
2023-01-23T01:54:15.282Z,32.35
2023-01-23T01:56:48.138Z,31.30
2023-01-23T01:59:17.476Z,31.73
2023-01-23T02:01:48.521Z,30.95
2023-01-23T02:04:16.662Z,35.38
2023-01-23T02:06:46.144Z,33.50
2023-01-23T02:09:22.301Z,32.45
2023-01-23T02:11:50.412Z,28.58
2023-01-23T02:14:18.331Z,30.98
2023-01-23T02:16:50.997Z,23.25
2023-01-23T02:19:31.929Z,27.48
2023-01-23T02:22:07.559Z,24.92
2023-01-23T02:24:43.847Z,27.75
2023-01-23T02:27:13.021Z,25.77
2023-01-23T02:29:42.384Z,28.25
2023-01-23T02:32:10.728Z,29.67
2023-01-23T02:34:38.789Z,25.92
2023-01-23T02:37:08.088Z,23.58
2023-01-23T02:39:37.110Z,24.92
2023-01-23T02:42:06.007Z,26.48
2023-01-23T02:44:35.169Z,24.45
2023-01-23T02:47:07.911Z,25.42
2023-01-23T02:49:35.724Z,25.95
2023-01-23T02:52:03.534Z,30.35
2023-01-23T02:54:31.677Z,30.55
2023-01-23T02:56:59.995Z,29.55
2023-01-23T02:59:45.089Z,33.33
2023-01-23T03:02:14.534Z,31.83
2023-01-23T03:04:42.681Z,27.92
2023-01-23T03:07:10.571Z,25.08
2023-01-23T03:09:38.406Z,28.90
2023-01-23T03:12:07.217Z,30.42
2023-01-23T03:14:35.019Z,29.85
2023-01-23T03:17:02.895Z,27.00
2023-01-23T03:19:32.236Z,28.77
2023-01-23T03:22:00.573Z,27.38
2023-01-23T03:24:28.443Z,30.27
2023-01-23T03:26:56.254Z,29.95
2023-01-23T03:29:44.068Z,31.05
2023-01-23T03:32:13.496Z,31.33
2023-01-23T03:34:42.831Z,35.85
2023-01-23T03:37:11.894Z,30.65
2023-01-23T03:39:57.213Z,27.83
2023-01-23T03:42:25.038Z,30.45
2023-01-23T03:44:53.396Z,33.42
2023-01-23T03:47:21.736Z,34.35
2023-01-23T03:49:50.930Z,27.65
2023-01-23T03:52:18.738Z,30.88
2023-01-23T03:54:46.527Z,32.35
2023-01-23T03:57:14.308Z,31.05
2023-01-23T03:59:42.114Z,28.50
2023-01-23T04:02:10.230Z,29.77
2023-01-23T04:04:38.035Z,34.03
2023-01-23T04:07:08.237Z,29.48
2023-01-23T04:09:36.067Z,34.00
2023-01-23T04:12:03.999Z,29.25
2023-01-23T04:14:37.134Z,35.25
2023-01-23T04:17:05.576Z,30.60
2023-01-23T04:19:33.931Z,34.22
2023-01-23T04:22:02.093Z,31.17
2023-01-23T04:24:31.300Z,34.28
2023-01-23T04:26:59.109Z,32.63
2023-01-23T04:29:26.986Z,32.75
2023-01-23T04:31:54.767Z,30.17
2023-01-23T04:34:22.622Z,32.05
2023-01-23T04:36:50.426Z,30.83
2023-01-23T04:39:18.241Z,30.65
2023-01-23T04:41:47.386Z,30.13
2023-01-23T04:44:21.102Z,31.15
2023-01-23T04:46:49.765Z,30.60
2023-01-23T04:49:18.893Z,27.38
2023-01-23T04:51:48.141Z,30.95
2023-01-23T04:54:16.113Z,30.10
2023-01-23T04:56:44.264Z,34.42
2023-01-23T04:59:15.852Z,31.95
2023-01-23T05:01:43.681Z,31.40
2023-01-23T05:04:11.522Z,29.33
2023-01-23T05:06:39.429Z,29.80
2023-01-23T05:09:07.991Z,32.88
2023-01-23T05:11:35.861Z,33.63
2023-01-23T05:14:03.681Z,36.05
2023-01-23T05:16:32.863Z,35.40
2023-01-23T05:19:00.682Z,31.27
2023-01-23T05:21:28.562Z,35.22
2023-01-23T05:23:56.340Z,29.08
2023-01-23T05:26:24.100Z,31.65
2023-01-23T05:28:51.923Z,33.25
2023-01-23T05:31:19.860Z,29.45
2023-01-23T05:33:49.084Z,29.60
2023-01-23T05:36:18.567Z,29.88
2023-01-23T05:38:46.637Z,29.42
2023-01-23T05:41:14.439Z,27.65
2023-01-23T05:43:42.228Z,33.17
2023-01-23T05:46:10.063Z,35.55
2023-01-23T05:48:37.861Z,26.98
2023-01-23T05:51:07.278Z,27.85
2023-01-23T05:53:35.070Z,28.15
2023-01-23T05:56:07.146Z,27.73
2023-01-23T05:58:34.990Z,29.60
2023-01-23T06:01:03.566Z,26.38
2023-01-23T06:03:31.654Z,34.67
2023-01-23T06:06:01.497Z,29.98
2023-01-23T06:08:30.909Z,32.00
2023-01-23T06:10:59.731Z,36.53
2023-01-23T06:13:27.962Z,34.90
2023-01-23T06:15:56.084Z,30.60
2023-01-23T06:18:24.307Z,37.83
2023-01-23T06:20:57.921Z,33.22
2023-01-23T06:23:25.773Z,34.25
2023-01-23T06:25:55.108Z,37.00
2023-01-23T06:28:22.873Z,39.47
2023-01-23T06:30:50.730Z,36.10
2023-01-23T06:33:18.552Z,35.53
2023-01-23T06:35:46.352Z,40.13
2023-01-23T06:38:14.124Z,36.47
2023-01-23T06:40:41.924Z,36.78
2023-01-23T06:43:11.034Z,42.60
2023-01-23T06:45:38.849Z,43.97
2023-01-23T06:48:07.242Z,46.85
2023-01-23T06:50:35.050Z,41.58
2023-01-23T06:53:02.851Z,45.28
2023-01-23T06:55:30.666Z,45.45
2023-01-23T06:57:58.495Z,49.05
2023-01-23T07:00:28.095Z,43.22
2023-01-23T07:02:58.858Z,52.58
2023-01-23T07:05:26.713Z,53.53
2023-01-23T07:07:54.485Z,54.13
2023-01-23T07:10:23.025Z,56.05
2023-01-23T07:12:51.412Z,47.67
2023-01-23T07:15:19.428Z,51.08
2023-01-23T07:17:48.576Z,50.38
2023-01-23T07:20:16.608Z,55.75
2023-01-23T07:22:45.022Z,51.63
2023-01-23T07:25:12.849Z,52.63
2023-01-23T07:27:41.040Z,54.75
2023-01-23T07:30:10.452Z,49.83
2023-01-23T07:32:38.300Z,46.75
2023-01-23T07:35:09.203Z,46.80
2023-01-23T07:37:37.074Z,44.30
2023-01-23T07:40:05.383Z,46.72
2023-01-23T07:42:33.237Z,45.47
2023-01-23T07:45:01.065Z,39.63
2023-01-23T07:47:28.882Z,35.53
2023-01-23T07:49:56.703Z,34.85
2023-01-23T07:52:25.870Z,37.05
2023-01-23T07:54:53.645Z,35.33
2023-01-23T07:57:21.462Z,38.97
2023-01-23T07:59:49.285Z,35.28
2023-01-23T08:02:17.173Z,36.50
2023-01-23T08:04:44.950Z,33.40
2023-01-23T08:07:12.855Z,34.35
2023-01-23T08:09:41.983Z,32.50
2023-01-23T08:12:09.817Z,35.20
2023-01-23T08:14:37.770Z,34.15
2023-01-23T08:17:06.155Z,34.30
2023-01-23T08:19:34.330Z,30.98
2023-01-23T08:22:02.218Z,33.67
2023-01-23T08:24:30.030Z,33.25
2023-01-23T08:27:00.675Z,33.55
2023-01-23T08:29:28.536Z,34.78
2023-01-23T08:31:56.426Z,32.85
2023-01-23T08:34:24.939Z,31.20
2023-01-23T08:36:52.848Z,29.80
2023-01-23T08:39:21.106Z,33.03
2023-01-23T08:41:48.903Z,33.47
2023-01-23T08:44:18.294Z,30.17
2023-01-23T08:46:47.227Z,34.30
2023-01-23T08:49:15.028Z,33.50
2023-01-23T08:51:42.878Z,30.10
2023-01-23T08:54:10.663Z,29.98
2023-01-23T08:56:38.437Z,31.33
2023-01-23T08:59:06.239Z,29.17
2023-01-23T09:01:35.507Z,31.02
2023-01-23T09:04:03.334Z,30.27
2023-01-23T09:06:31.397Z,27.73
2023-01-23T09:08:59.192Z,30.23
2023-01-23T09:11:27.004Z,29.17
2023-01-23T09:13:54.768Z,31.05
2023-01-23T09:16:22.742Z,28.95
2023-01-23T09:18:51.937Z,30.98
2023-01-23T09:21:19.754Z,31.73
2023-01-23T09:23:47.627Z,28.13
2023-01-23T09:26:17.229Z,30.95
2023-01-23T09:28:46.677Z,27.30
2023-01-23T09:31:15.110Z,27.95
2023-01-23T09:33:43.438Z,28.92
2023-01-23T09:36:12.652Z,29.05
2023-01-23T09:38:40.635Z,27.92
2023-01-23T09:41:11.730Z,27.40
2023-01-23T09:43:45.784Z,25.48
2023-01-23T09:46:20.607Z,27.35
2023-01-23T09:48:53.836Z,26.65
2023-01-23T09:51:28.164Z,21.83
2023-01-23T09:54:00.198Z,24.45
2023-01-23T09:56:36.997Z,25.63
2023-01-23T09:59:16.834Z,24.83
2023-01-23T10:01:44.692Z,24.88
2023-01-23T10:04:15.975Z,25.80
2023-01-23T10:07:05.279Z,25.23
2023-01-23T10:09:46.665Z,26.58
2023-01-23T10:12:29.500Z,26.45
2023-01-23T10:15:24.496Z,26.65
2023-01-23T10:18:00.452Z,24.80
2023-01-23T10:20:44.305Z,26.65
2023-01-23T10:23:26.345Z,28.42
2023-01-23T10:25:54.624Z,26.77
2023-01-23T10:28:30.638Z,27.67
2023-01-23T10:31:02.113Z,24.50
2023-01-23T10:33:38.470Z,24.08
2023-01-23T10:36:17.652Z,28.33
2023-01-23T10:39:00.345Z,22.75
2023-01-23T10:41:28.215Z,24.63
2023-01-23T10:43:57.681Z,24.17
2023-01-23T10:46:32.420Z,26.73
2023-01-23T10:49:02.211Z,24.58
2023-01-23T10:51:36.562Z,26.50
2023-01-23T10:54:29.695Z,23.45
2023-01-23T10:57:00.651Z,23.10
2023-01-23T10:59:32.593Z,21.75
2023-01-23T11:02:04.677Z,21.88
2023-01-23T11:07:08.397Z,22.63
2023-01-23T11:09:49.684Z,23.48
2023-01-23T11:12:20.147Z,32.25
2023-01-23T11:14:48.406Z,25.00
2023-01-23T11:17:22.888Z,25.95
2023-01-23T11:19:53.567Z,25.10
2023-01-23T11:22:36.996Z,22.10
2023-01-23T11:25:30.324Z,23.20
2023-01-23T11:28:00.300Z,22.60
2023-01-23T11:30:39.364Z,22.65
2023-01-23T11:33:15.294Z,24.63
2023-01-23T11:35:54.643Z,22.95
2023-01-23T11:38:31.221Z,25.35
2023-01-23T11:41:00.707Z,21.83
2023-01-23T11:43:28.718Z,23.40
2023-01-23T11:46:10.525Z,25.50
2023-01-23T11:48:59.624Z,18.52
2023-01-23T11:51:37.246Z,30.38
2023-01-23T11:54:19.517Z,26.23
2023-01-23T11:57:00.131Z,20.73
2023-01-23T12:00:02.049Z,22.33
2023-01-23T12:02:58.598Z,17.90
2023-01-23T12:05:51.886Z,21.83
2023-01-23T12:08:28.601Z,23.08
2023-01-23T12:11:13.678Z,24.92
2023-01-23T12:13:59.353Z,23.10
2023-01-23T12:16:36.214Z,22.55
2023-01-23T12:19:22.632Z,21.75
2023-01-23T12:21:57.542Z,21.60
2023-01-23T12:24:41.271Z,23.73
2023-01-23T12:27:20.000Z,20.80
2023-01-23T12:30:09.068Z,20.50
2023-01-23T12:32:52.863Z,26.52
2023-01-23T12:35:32.596Z,23.10
2023-01-23T12:38:15.389Z,21.88
2023-01-23T12:40:47.593Z,21.67
2023-01-23T12:45:51.988Z,22.92
2023-01-23T12:48:28.174Z,22.90
2023-01-23T12:51:02.099Z,23.50
2023-01-23T12:53:32.983Z,22.23
2023-01-23T12:56:07.184Z,19.98
2023-01-23T12:58:37.217Z,18.75
2023-01-23T13:01:25.061Z,24.30
2023-01-23T13:04:02.426Z,24.35
2023-01-23T13:06:57.909Z,22.88
2023-01-23T13:09:37.835Z,21.63
2023-01-23T13:12:20.375Z,20.25
2023-01-23T13:15:13.927Z,19.33
2023-01-23T13:17:40.746Z,20.65
2023-01-23T13:20:44.443Z,21.83
2023-01-23T13:23:29.597Z,21.77
2023-01-23T13:26:36.365Z,22.13
2023-01-23T13:29:07.483Z,19.27
2023-01-23T13:31:40.112Z,20.70
2023-01-23T13:34:37.954Z,21.80
2023-01-23T13:37:45.528Z,18.75
2023-01-23T13:40:23.527Z,23.80
2023-01-23T13:42:51.485Z,21.90
2023-01-23T13:45:27.986Z,23.02
2023-01-23T14:22:36.698Z,24.02
2023-01-23T14:25:15.855Z,22.30
2023-01-23T14:27:52.852Z,22.65
2023-01-23T14:30:24.687Z,22.33
2023-01-23T14:32:52.548Z,23.45
2023-01-23T14:35:25.414Z,22.70
2023-01-23T14:37:55.122Z,24.83
2023-01-23T14:40:28.114Z,23.70
2023-01-23T14:43:00.819Z,21.30
2023-01-23T14:45:32.907Z,24.88
2023-01-23T14:48:06.439Z,21.70
2023-01-23T14:50:34.722Z,22.98
2023-01-23T14:53:04.923Z,22.67
2023-01-23T14:55:38.389Z,23.65
2023-01-23T14:58:07.583Z,21.45
2023-01-23T15:00:36.551Z,23.80
2023-01-23T15:03:05.345Z,23.85
2023-01-23T15:05:33.491Z,23.17
2023-01-23T15:08:04.260Z,23.58
2023-01-23T15:10:36.380Z,23.30
2023-01-23T15:13:09.913Z,20.40
2023-01-23T15:15:37.837Z,23.67
2023-01-23T15:18:20.483Z,24.98
2023-01-23T15:20:54.486Z,23.98
2023-01-23T15:23:28.385Z,26.35
2023-01-23T15:26:32.687Z,23.98
2023-01-23T15:29:03.834Z,23.42
2023-01-23T15:31:33.636Z,22.98
2023-01-23T15:34:30.777Z,24.13
2023-01-23T15:37:06.548Z,26.60
2023-01-23T15:39:39.146Z,24.10
2023-01-23T15:42:27.176Z,23.27
2023-01-23T15:44:55.061Z,25.23
2023-01-23T15:47:22.917Z,22.23
2023-01-23T15:49:50.705Z,23.98
2023-01-23T15:52:22.298Z,20.65
2023-01-23T15:54:51.826Z,22.77
2023-01-23T15:57:20.947Z,24.88
2023-01-23T15:59:49.067Z,19.75
2023-01-23T16:02:29.964Z,21.75
2023-01-23T16:04:58.637Z,21.35
2023-01-23T16:07:31.122Z,21.52
2023-01-23T16:09:59.156Z,19.95
2023-01-23T16:12:29.882Z,19.27
2023-01-23T16:14:58.404Z,21.67
2023-01-23T16:17:26.208Z,21.38
2023-01-23T16:19:54.373Z,21.60
2023-01-23T16:22:26.382Z,23.42
2023-01-23T16:24:54.782Z,24.80
2023-01-23T16:27:27.264Z,23.33
2023-01-23T16:29:57.217Z,27.15
2023-01-23T16:32:25.947Z,27.17
2023-01-23T16:34:53.784Z,25.15
2023-01-23T16:37:21.614Z,26.30
2023-01-23T16:39:49.409Z,23.55
2023-01-23T16:42:21.032Z,25.35
2023-01-23T16:44:48.952Z,26.40
2023-01-23T16:47:18.326Z,28.15
2023-01-23T16:49:52.751Z,26.88
2023-01-23T16:52:22.627Z,24.00
2023-01-23T16:54:53.091Z,27.13
2023-01-23T16:57:21.856Z,27.73
2023-01-23T16:59:50.854Z,29.98
2023-01-23T17:02:23.099Z,28.98
2023-01-23T17:04:51.222Z,34.13
2023-01-23T17:07:20.002Z,30.70
2023-01-23T17:09:49.157Z,33.05
2023-01-23T17:12:20.858Z,35.45
2023-01-23T17:14:50.014Z,31.55
2023-01-23T17:17:25.910Z,31.85
2023-01-23T17:19:55.059Z,33.90
2023-01-23T17:22:26.155Z,34.35
2023-01-23T17:24:54.038Z,32.00
2023-01-23T17:27:21.788Z,34.60
2023-01-23T17:29:49.924Z,31.88
2023-01-23T17:32:30.682Z,34.40
2023-01-23T17:35:01.756Z,33.20
2023-01-23T17:37:30.909Z,31.15
2023-01-23T17:39:58.672Z,30.48
2023-01-23T17:42:26.461Z,31.63
2023-01-23T17:44:54.243Z,29.05
2023-01-23T17:47:23.654Z,31.73
2023-01-23T17:49:54.430Z,31.80
2023-01-23T17:52:22.669Z,34.70
2023-01-23T17:54:50.751Z,29.88
2023-01-23T17:57:18.597Z,32.67
2023-01-23T17:59:46.408Z,32.25
2023-01-23T18:02:27.922Z,32.47
2023-01-23T18:04:55.955Z,35.70
2023-01-23T18:07:23.742Z,31.77
2023-01-23T18:09:52.406Z,34.72
2023-01-23T18:12:29.459Z,30.55
2023-01-23T18:15:05.172Z,34.60
2023-01-23T18:17:44.673Z,35.15
2023-01-23T18:20:18.888Z,36.38
2023-01-23T18:22:47.311Z,33.72
2023-01-23T18:25:16.729Z,39.15
2023-01-23T18:27:49.971Z,35.30
2023-01-23T18:30:30.516Z,34.10
2023-01-23T18:33:27.068Z,36.13
2023-01-23T18:36:13.714Z,37.95
2023-01-23T18:38:57.325Z,37.63
2023-01-23T18:41:27.060Z,36.30
2023-01-23T18:44:02.466Z,36.60
2023-01-23T18:46:34.640Z,35.85
2023-01-23T18:49:04.628Z,36.58
2023-01-23T18:51:39.753Z,38.53
2023-01-23T18:54:29.157Z,40.35
2023-01-23T18:57:08.412Z,36.35
2023-01-23T18:59:43.171Z,40.60
2023-01-23T19:02:23.177Z,33.75
2023-01-23T19:04:56.522Z,40.58
2023-01-23T19:07:24.716Z,34.28
2023-01-23T19:09:53.075Z,34.67
2023-01-23T19:12:30.106Z,38.08
2023-01-23T19:15:09.537Z,41.88
2023-01-23T19:17:44.001Z,33.53
2023-01-23T19:20:22.966Z,35.72
2023-01-23T19:23:06.871Z,35.95
2023-01-23T19:25:35.198Z,44.05
2023-01-23T19:28:03.725Z,39.20
2023-01-23T19:30:32.326Z,35.35
2023-01-23T19:33:00.144Z,37.33
2023-01-23T19:35:29.637Z,36.35
2023-01-23T19:37:57.556Z,32.28
2023-01-23T19:40:25.353Z,36.65
2023-01-23T19:43:13.203Z,37.63
2023-01-23T19:45:42.144Z,32.97
2023-01-23T19:48:09.981Z,31.08
2023-01-23T19:50:39.709Z,36.42
2023-01-23T19:53:07.757Z,28.52
2023-01-23T19:55:38.223Z,30.85
2023-01-23T19:58:06.402Z,31.08
2023-01-23T20:00:36.047Z,30.15
2023-01-23T20:03:05.206Z,30.90
2023-01-23T20:05:33.390Z,35.30
2023-01-23T20:08:02.486Z,32.30
2023-01-23T20:10:30.303Z,35.45
2023-01-23T20:12:58.141Z,32.25
2023-01-23T20:15:27.558Z,29.55
2023-01-23T20:17:55.750Z,31.23
2023-01-23T20:20:24.109Z,29.30
2023-01-23T20:22:52.083Z,34.22
2023-01-23T20:25:21.573Z,37.80
2023-01-23T20:27:49.616Z,34.28
2023-01-23T20:30:20.285Z,35.20
2023-01-23T20:32:49.079Z,35.97
2023-01-23T20:35:17.084Z,35.25
2023-01-23T20:37:44.918Z,32.90
2023-01-23T20:40:13.211Z,36.85
2023-01-23T20:42:42.489Z,35.40
2023-01-23T20:45:11.024Z,33.22
2023-01-23T20:47:38.918Z,36.00
2023-01-23T20:50:07.414Z,36.33
2023-01-23T20:52:52.627Z,32.88
2023-01-23T20:55:20.768Z,35.55
2023-01-23T20:58:07.362Z,34.58
2023-01-23T21:00:35.153Z,32.90
2023-01-23T21:03:03.096Z,34.60
2023-01-23T21:05:30.903Z,33.58
2023-01-23T21:07:58.716Z,39.28
2023-01-23T21:10:26.786Z,39.83
2023-01-23T21:12:56.005Z,40.28
2023-01-23T21:15:24.140Z,37.38
2023-01-23T21:17:51.982Z,38.25
2023-01-23T21:20:19.897Z,34.22
2023-01-23T21:22:48.055Z,35.47
2023-01-23T21:25:15.869Z,34.72
2023-01-23T21:27:43.679Z,38.30
2023-01-23T21:30:13.798Z,35.15
2023-01-23T21:32:41.904Z,30.77
2023-01-23T21:35:10.529Z,36.38
2023-01-23T21:37:38.382Z,37.35
2023-01-23T21:40:07.631Z,39.05
2023-01-23T21:42:35.427Z,34.58
2023-01-23T21:45:03.248Z,36.45
2023-01-23T21:47:32.399Z,38.05
2023-01-23T21:50:00.207Z,39.90
2023-01-23T21:52:29.582Z,39.15
2023-01-23T21:54:57.654Z,39.30
2023-01-23T21:57:25.547Z,34.92
2023-01-23T22:00:07.281Z,38.05
2023-01-23T22:02:36.504Z,40.33
2023-01-23T22:05:04.384Z,36.42
2023-01-23T22:07:32.182Z,39.70
2023-01-23T22:09:59.987Z,38.67
2023-01-23T22:12:28.886Z,40.72
2023-01-23T22:14:56.749Z,39.08
2023-01-23T22:17:24.664Z,39.97
2023-01-23T22:19:53.836Z,42.80
2023-01-23T22:22:21.601Z,40.38
2023-01-23T22:24:49.603Z,43.03
2023-01-23T22:27:17.848Z,39.85
2023-01-23T22:29:45.648Z,37.45
2023-01-23T22:32:13.535Z,39.95
2023-01-23T22:34:41.348Z,38.97
2023-01-23T22:37:10.471Z,44.17
2023-01-23T22:39:38.293Z,41.22
2023-01-23T22:42:06.164Z,46.20
2023-01-23T22:44:33.990Z,41.13
2023-01-23T22:47:01.827Z,45.67
2023-01-23T22:49:29.722Z,46.22
2023-01-23T22:51:58.745Z,40.00
2023-01-23T22:54:28.052Z,46.85
2023-01-23T22:56:55.852Z,42.65
2023-01-23T22:59:23.763Z,46.20
2023-01-23T23:01:51.556Z,48.80
2023-01-23T23:04:19.348Z,40.28
2023-01-23T23:06:47.147Z,39.88
2023-01-23T23:09:15.291Z,38.65
2023-01-23T23:11:47.320Z,41.00
2023-01-23T23:14:15.102Z,41.97
2023-01-23T23:16:42.910Z,47.75
2023-01-23T23:19:11.715Z,41.47
2023-01-23T23:21:39.942Z,45.88
2023-01-23T23:24:09.632Z,48.03
2023-01-23T23:26:37.596Z,46.80
2023-01-23T23:29:07.101Z,48.00
2023-01-23T23:31:35.233Z,44.38
2023-01-23T23:34:03.219Z,39.67
2023-01-23T23:36:31.213Z,48.08
2023-01-23T23:39:00.318Z,46.22
2023-01-23T23:41:28.465Z,42.20
2023-01-23T23:43:56.246Z,42.70
2023-01-23T23:46:25.373Z,44.67
2023-01-23T23:48:53.208Z,43.30
2023-01-23T23:51:22.731Z,51.97
2023-01-23T23:53:50.799Z,48.53
2023-01-23T23:56:21.545Z,45.78
2023-01-23T23:58:49.618Z,44.80
